sensor_id;sensor_type;location;lat;lon;timestamp;pressure;altitude;pressure_sealevel;temperature;humidity
40384;BME280;26097;42.366;23.818;2023-01-31T00:04:16;93531.63;;;-0.01;100.00
40384;BME280;26097;42.366;23.818;2023-01-31T00:07:17;93535.91;;;-0.01;100.00
40384;BME280;26097;42.366;23.818;2023-01-31T00:10:17;93532.72;;;-0.06;100.00
40384;BME280;26097;42.366;23.818;2023-01-31T00:13:17;93526.97;;;-0.11;100.00
40384;BME280;26097;42.366;23.818;2023-01-31T00:16:19;93527.09;;;-0.15;100.00
40384;BME280;26097;42.366;23.818;2023-01-31T00:19:19;93527.25;;;-0.18;100.00
40384;BME280;26097;42.366;23.818;2023-01-31T00:22:20;93534.03;;;-0.17;100.00
40384;BME280;26097;42.366;23.818;2023-01-31T00:25:20;93536.44;;;-0.13;100.00
40384;BME280;26097;42.366;23.818;2023-01-31T00:28:20;93529.91;;;-0.21;100.00
40384;BME280;26097;42.366;23.818;2023-01-31T00:31:22;93520.66;;;-0.23;100.00
40384;BME280;26097;42.366;23.818;2023-01-31T00:34:23;93523.13;;;-0.22;100.00
40384;BME280;26097;42.366;23.818;2023-01-31T00:37:23;93516.34;;;-0.23;100.00
40384;BME280;26097;42.366;23.818;2023-01-31T00:40:24;93508.50;;;-0.20;100.00
40384;BME280;26097;42.366;23.818;2023-01-31T00:43:24;93506.16;;;-0.24;100.00
40384;BME280;26097;42.366;23.818;2023-01-31T00:46:25;93504.56;;;-0.27;100.00
40384;BME280;26097;42.366;23.818;2023-01-31T00:49:25;93502.91;;;-0.28;100.00
40384;BME280;26097;42.366;23.818;2023-01-31T00:52:25;93497.06;;;-0.32;100.00
40384;BME280;26097;42.366;23.818;2023-01-31T00:55:26;93492.94;;;-0.34;100.00
40384;BME280;26097;42.366;23.818;2023-01-31T00:58:26;93494.78;;;-0.38;100.00
40384;BME280;26097;42.366;23.818;2023-01-31T01:01:28;93500.84;;;-0.40;100.00
40384;BME280;26097;42.366;23.818;2023-01-31T01:04:28;93489.84;;;-0.43;100.00
40384;BME280;26097;42.366;23.818;2023-01-31T01:07:28;93488.19;;;-0.44;100.00
40384;BME280;26097;42.366;23.818;2023-01-31T01:10:29;93486.66;;;-0.48;100.00
40384;BME280;26097;42.366;23.818;2023-01-31T01:13:29;93485.28;;;-0.55;100.00
40384;BME280;26097;42.366;23.818;2023-01-31T01:16:33;93487.81;;;-0.34;100.00
40384;BME280;26097;42.366;23.818;2023-01-31T01:19:33;93474.06;;;-0.12;100.00
40384;BME280;26097;42.366;23.818;2023-01-31T01:22:34;93477.19;;;-0.06;100.00
40384;BME280;26097;42.366;23.818;2023-01-31T01:25:40;93469.28;;;-0.01;100.00
40384;BME280;26097;42.366;23.818;2023-01-31T01:28:41;93464.94;;;0.01;100.00
40384;BME280;26097;42.366;23.818;2023-01-31T01:31:41;93465.75;;;0.02;100.00
40384;BME280;26097;42.366;23.818;2023-01-31T01:34:42;93467.22;;;0.07;100.00
40384;BME280;26097;42.366;23.818;2023-01-31T01:37:43;93449.88;;;0.12;100.00
40384;BME280;26097;42.366;23.818;2023-01-31T01:40:43;93447.94;;;0.18;100.00
40384;BME280;26097;42.366;23.818;2023-01-31T01:43:52;93451.28;;;0.20;100.00
40384;BME280;26097;42.366;23.818;2023-01-31T01:46:52;93441.03;;;0.20;100.00
40384;BME280;26097;42.366;23.818;2023-01-31T01:49:58;93450.25;;;0.24;100.00
40384;BME280;26097;42.366;23.818;2023-01-31T01:53:08;93447.69;;;0.24;100.00
40384;BME280;26097;42.366;23.818;2023-01-31T01:56:19;93457.94;;;0.24;100.00
40384;BME280;26097;42.366;23.818;2023-01-31T01:59:24;93467.75;;;-0.05;100.00
40384;BME280;26097;42.366;23.818;2023-01-31T02:02:28;93466.91;;;-0.25;100.00
40384;BME280;26097;42.366;23.818;2023-01-31T02:05:35;93474.09;;;-0.33;100.00
40384;BME280;26097;42.366;23.818;2023-01-31T02:08:39;93472.69;;;-0.40;100.00
40384;BME280;26097;42.366;23.818;2023-01-31T02:11:40;93455.94;;;-0.48;100.00
40384;BME280;26097;42.366;23.818;2023-01-31T02:14:41;93461.97;;;-0.49;100.00
40384;BME280;26097;42.366;23.818;2023-01-31T02:17:44;93468.88;;;-0.51;100.00
40384;BME280;26097;42.366;23.818;2023-01-31T02:27:30;93473.78;;;-0.06;78.84
40384;BME280;26097;42.366;23.818;2023-01-31T02:40:14;93493.81;;;0.24;63.67
40384;BME280;26097;42.366;23.818;2023-01-31T02:46:31;93500.88;;;0.19;62.35
40384;BME280;26097;42.366;23.818;2023-01-31T02:49:40;93509.16;;;0.05;61.58
40384;BME280;26097;42.366;23.818;2023-01-31T02:52:51;93520.28;;;0.05;62.85
40384;BME280;26097;42.366;23.818;2023-01-31T02:55:57;93515.16;;;0.05;61.68
40384;BME280;26097;42.366;23.818;2023-01-31T02:59:22;93508.59;;;-0.02;61.42
40384;BME280;26097;42.366;23.818;2023-01-31T03:02:26;93514.84;;;-0.08;66.37
40384;BME280;26097;42.366;23.818;2023-01-31T03:05:27;93513.31;;;-0.12;63.96
40384;BME280;26097;42.366;23.818;2023-01-31T03:08:29;93533.75;;;-0.10;63.71
40384;BME280;26097;42.366;23.818;2023-01-31T03:18:28;93540.91;;;0.02;63.62
40384;BME280;26097;42.366;23.818;2023-01-31T03:21:44;93554.81;;;0.16;61.39
40384;BME280;26097;42.366;23.818;2023-01-31T03:24:47;93543.13;;;0.10;62.23
40384;BME280;26097;42.366;23.818;2023-01-31T03:27:51;93544.47;;;-0.02;62.23
40384;BME280;26097;42.366;23.818;2023-01-31T03:31:14;93551.03;;;0.05;59.64
40384;BME280;26097;42.366;23.818;2023-01-31T03:34:17;93560.00;;;-0.05;61.50
40384;BME280;26097;42.366;23.818;2023-01-31T03:37:33;93563.00;;;0.05;60.51
40384;BME280;26097;42.366;23.818;2023-01-31T03:40:40;93553.63;;;-0.16;62.17
40384;BME280;26097;42.366;23.818;2023-01-31T03:43:56;93566.81;;;-0.25;62.03
40384;BME280;26097;42.366;23.818;2023-01-31T03:47:03;93562.09;;;-0.34;63.39
40384;BME280;26097;42.366;23.818;2023-01-31T03:50:12;93572.06;;;-0.49;65.61
40384;BME280;26097;42.366;23.818;2023-01-31T03:53:37;93580.91;;;-0.56;66.42
40384;BME280;26097;42.366;23.818;2023-01-31T03:56:49;93579.47;;;-0.43;65.97
40384;BME280;26097;42.366;23.818;2023-01-31T03:59:54;93586.84;;;-0.35;67.15
40384;BME280;26097;42.366;23.818;2023-01-31T04:03:06;93583.00;;;-0.45;68.98
40384;BME280;26097;42.366;23.818;2023-01-31T04:06:10;93589.56;;;-0.60;70.53
40384;BME280;26097;42.366;23.818;2023-01-31T04:09:11;93612.75;;;-0.63;71.68
40384;BME280;26097;42.366;23.818;2023-01-31T04:12:13;93619.59;;;-0.64;73.44
40384;BME280;26097;42.366;23.818;2023-01-31T04:15:14;93623.34;;;-0.73;75.99
40384;BME280;26097;42.366;23.818;2023-01-31T04:18:15;93635.44;;;-0.76;77.62
40384;BME280;26097;42.366;23.818;2023-01-31T04:21:15;93640.72;;;-0.81;78.76
40384;BME280;26097;42.366;23.818;2023-01-31T04:24:15;93637.41;;;-0.83;81.25
40384;BME280;26097;42.366;23.818;2023-01-31T04:27:16;93625.78;;;-0.69;83.76
40384;BME280;26097;42.366;23.818;2023-01-31T04:30:16;93626.59;;;-0.69;85.73
40384;BME280;26097;42.366;23.818;2023-01-31T04:33:17;93622.34;;;-0.68;85.72
40384;BME280;26097;42.366;23.818;2023-01-31T04:36:17;93616.56;;;-0.74;87.70
40384;BME280;26097;42.366;23.818;2023-01-31T04:39:17;93624.13;;;-0.70;87.37
40384;BME280;26097;42.366;23.818;2023-01-31T04:42:18;93621.41;;;-0.66;87.81
40384;BME280;26097;42.366;23.818;2023-01-31T04:45:18;93621.50;;;-0.69;89.00
40384;BME280;26097;42.366;23.818;2023-01-31T04:48:19;93621.69;;;-0.74;89.32
40384;BME280;26097;42.366;23.818;2023-01-31T04:51:19;93611.63;;;-0.78;92.29
40384;BME280;26097;42.366;23.818;2023-01-31T04:54:20;93611.88;;;-0.84;95.79
40384;BME280;26097;42.366;23.818;2023-01-31T04:57:20;93622.03;;;-0.83;96.72
40384;BME280;26097;42.366;23.818;2023-01-31T05:00:21;93627.38;;;-0.88;99.62
40384;BME280;26097;42.366;23.818;2023-01-31T05:03:21;93619.72;;;-0.89;100.00
40384;BME280;26097;42.366;23.818;2023-01-31T05:06:22;93621.41;;;-0.88;100.00
40384;BME280;26097;42.366;23.818;2023-01-31T05:09:22;93621.53;;;-0.91;100.00
40384;BME280;26097;42.366;23.818;2023-01-31T05:12:24;93628.34;;;-0.92;100.00
40384;BME280;26097;42.366;23.818;2023-01-31T05:15:24;93616.28;;;-0.88;100.00
40384;BME280;26097;42.366;23.818;2023-01-31T05:18:25;93620.63;;;-0.90;100.00
40384;BME280;26097;42.366;23.818;2023-01-31T05:21:26;93621.53;;;-0.91;100.00
40384;BME280;26097;42.366;23.818;2023-01-31T05:24:29;93620.88;;;-0.96;100.00
40384;BME280;26097;42.366;23.818;2023-01-31T05:27:30;93615.09;;;-1.02;100.00
40384;BME280;26097;42.366;23.818;2023-01-31T05:30:30;93628.00;;;-1.05;100.00
40384;BME280;26097;42.366;23.818;2023-01-31T05:33:31;93631.41;;;-1.04;100.00
40384;BME280;26097;42.366;23.818;2023-01-31T05:36:32;93616.06;;;-1.04;100.00
40384;BME280;26097;42.366;23.818;2023-01-31T05:39:32;93621.28;;;-1.07;100.00
40384;BME280;26097;42.366;23.818;2023-01-31T05:42:33;93618.00;;;-1.11;100.00
40384;BME280;26097;42.366;23.818;2023-01-31T05:45:34;93628.25;;;-1.11;100.00
40384;BME280;26097;42.366;23.818;2023-01-31T05:48:34;93624.72;;;-1.08;100.00
40384;BME280;26097;42.366;23.818;2023-01-31T05:51:34;93627.06;;;-1.02;100.00
40384;BME280;26097;42.366;23.818;2023-01-31T05:54:35;93644.25;;;-1.06;100.00
40384;BME280;26097;42.366;23.818;2023-01-31T05:57:35;93660.22;;;-1.01;100.00
40384;BME280;26097;42.366;23.818;2023-01-31T06:00:36;93657.34;;;-0.91;100.00
40384;BME280;26097;42.366;23.818;2023-01-31T06:03:37;93661.50;;;-0.89;100.00
40384;BME280;26097;42.366;23.818;2023-01-31T06:06:37;93661.28;;;-0.82;100.00
40384;BME280;26097;42.366;23.818;2023-01-31T06:09:38;93665.34;;;-0.77;100.00
40384;BME280;26097;42.366;23.818;2023-01-31T06:12:39;93652.44;;;-0.75;100.00
40384;BME280;26097;42.366;23.818;2023-01-31T06:15:43;93666.75;;;-0.69;100.00
40384;BME280;26097;42.366;23.818;2023-01-31T06:18:43;93664.84;;;-0.64;100.00
40384;BME280;26097;42.366;23.818;2023-01-31T06:21:44;93672.34;;;-0.60;100.00
40384;BME280;26097;42.366;23.818;2023-01-31T06:24:44;93683.19;;;-0.53;100.00
40384;BME280;26097;42.366;23.818;2023-01-31T06:27:45;93665.94;;;-0.49;100.00
40384;BME280;26097;42.366;23.818;2023-01-31T06:30:45;93670.53;;;-0.35;100.00
40384;BME280;26097;42.366;23.818;2023-01-31T06:33:45;93648.72;;;-0.23;100.00
40384;BME280;26097;42.366;23.818;2023-01-31T06:36:46;93657.75;;;-0.15;100.00
40384;BME280;26097;42.366;23.818;2023-01-31T06:39:46;93648.84;;;-0.06;100.00
40384;BME280;26097;42.366;23.818;2023-01-31T06:42:46;93659.28;;;0.10;100.00
40384;BME280;26097;42.366;23.818;2023-01-31T06:45:47;93657.28;;;0.17;98.37
40384;BME280;26097;42.366;23.818;2023-01-31T06:48:50;93649.16;;;0.28;98.05
40384;BME280;26097;42.366;23.818;2023-01-31T06:51:50;93656.78;;;0.30;96.81
40384;BME280;26097;42.366;23.818;2023-01-31T06:54:51;93669.50;;;0.31;94.70
40384;BME280;26097;42.366;23.818;2023-01-31T06:57:51;93658.94;;;0.39;94.20
40384;BME280;26097;42.366;23.818;2023-01-31T07:00:52;93670.66;;;0.45;93.05
40384;BME280;26097;42.366;23.818;2023-01-31T07:03:52;93678.41;;;0.43;92.35
40384;BME280;26097;42.366;23.818;2023-01-31T07:06:52;93680.91;;;0.45;92.72
40384;BME280;26097;42.366;23.818;2023-01-31T07:09:53;93678.97;;;0.50;93.08
40384;BME280;26097;42.366;23.818;2023-01-31T07:12:53;93680.78;;;0.48;92.05
40384;BME280;26097;42.366;23.818;2023-01-31T07:15:54;93680.38;;;0.57;91.33
40384;BME280;26097;42.366;23.818;2023-01-31T07:18:55;93675.13;;;0.60;91.69
40384;BME280;26097;42.366;23.818;2023-01-31T07:21:55;93675.81;;;0.64;90.77
40384;BME280;26097;42.366;23.818;2023-01-31T07:24:55;93664.97;;;0.57;90.80
40384;BME280;26097;42.366;23.818;2023-01-31T07:27:56;93666.97;;;0.71;89.32
40384;BME280;26097;42.366;23.818;2023-01-31T07:31:06;93674.50;;;0.93;88.00
40384;BME280;26097;42.366;23.818;2023-01-31T07:34:09;93668.75;;;1.07;86.48
40384;BME280;26097;42.366;23.818;2023-01-31T07:37:10;93662.34;;;1.16;86.46
40384;BME280;26097;42.366;23.818;2023-01-31T07:40:13;93664.16;;;1.14;84.33
40384;BME280;26097;42.366;23.818;2023-01-31T07:43:13;93671.47;;;1.23;84.94
40384;BME280;26097;42.366;23.818;2023-01-31T07:46:14;93656.25;;;1.38;85.47
40384;BME280;26097;42.366;23.818;2023-01-31T07:49:14;93667.19;;;1.41;84.73
40384;BME280;26097;42.366;23.818;2023-01-31T07:52:15;93650.97;;;1.41;83.71
40384;BME280;26097;42.366;23.818;2023-01-31T07:55:15;93653.47;;;1.60;83.61
40384;BME280;26097;42.366;23.818;2023-01-31T07:58:16;93670.91;;;1.53;81.83
40384;BME280;26097;42.366;23.818;2023-01-31T08:01:18;93669.44;;;1.84;81.87
40384;BME280;26097;42.366;23.818;2023-01-31T08:04:38;93679.56;;;1.88;79.53
40384;BME280;26097;42.366;23.818;2023-01-31T08:07:38;93676.41;;;1.82;80.01
40384;BME280;26097;42.366;23.818;2023-01-31T08:10:38;93671.63;;;1.75;80.34
40384;BME280;26097;42.366;23.818;2023-01-31T08:13:39;93673.81;;;1.65;82.91
40384;BME280;26097;42.366;23.818;2023-01-31T08:16:40;93677.84;;;1.51;83.82
40384;BME280;26097;42.366;23.818;2023-01-31T08:19:40;93676.56;;;1.79;82.74
40384;BME280;26097;42.366;23.818;2023-01-31T08:22:40;93700.31;;;2.20;81.19
40384;BME280;26097;42.366;23.818;2023-01-31T08:25:41;93665.22;;;2.19;81.88
40384;BME280;26097;42.366;23.818;2023-01-31T08:28:43;93669.44;;;2.37;80.65
40384;BME280;26097;42.366;23.818;2023-01-31T08:31:43;93684.03;;;2.70;79.50
40384;BME280;26097;42.366;23.818;2023-01-31T08:34:44;93670.94;;;2.75;77.25
40384;BME280;26097;42.366;23.818;2023-01-31T08:37:44;93672.25;;;2.66;77.92
40384;BME280;26097;42.366;23.818;2023-01-31T08:40:44;93667.88;;;2.51;80.01
40384;BME280;26097;42.366;23.818;2023-01-31T08:43:45;93660.63;;;2.59;77.76
40384;BME280;26097;42.366;23.818;2023-01-31T08:46:47;93675.16;;;2.60;77.87
40384;BME280;26097;42.366;23.818;2023-01-31T08:49:48;93680.66;;;2.86;76.34
40384;BME280;26097;42.366;23.818;2023-01-31T08:52:53;93670.41;;;2.68;79.32
40384;BME280;26097;42.366;23.818;2023-01-31T08:56:00;93669.09;;;2.61;80.37
40384;BME280;26097;42.366;23.818;2023-01-31T08:59:01;93668.50;;;2.56;81.09
40384;BME280;26097;42.366;23.818;2023-01-31T09:02:01;93659.56;;;2.46;81.21
40384;BME280;26097;42.366;23.818;2023-01-31T09:05:03;93667.53;;;2.23;81.74
40384;BME280;26097;42.366;23.818;2023-01-31T09:08:05;93704.97;;;2.29;83.55
40384;BME280;26097;42.366;23.818;2023-01-31T09:11:05;93684.09;;;2.35;81.60
40384;BME280;26097;42.366;23.818;2023-01-31T09:14:06;93679.19;;;2.31;81.45
40384;BME280;26097;42.366;23.818;2023-01-31T09:17:06;93689.84;;;2.40;82.51
40384;BME280;26097;42.366;23.818;2023-01-31T09:20:07;93668.03;;;2.48;83.02
40384;BME280;26097;42.366;23.818;2023-01-31T09:23:09;93703.28;;;2.63;81.68
40384;BME280;26097;42.366;23.818;2023-01-31T09:26:10;93682.13;;;2.58;81.29
40384;BME280;26097;42.366;23.818;2023-01-31T09:29:11;93671.63;;;2.79;80.65
40384;BME280;26097;42.366;23.818;2023-01-31T09:32:11;93686.41;;;2.91;78.86
40384;BME280;26097;42.366;23.818;2023-01-31T09:35:12;93687.88;;;2.79;79.24
40384;BME280;26097;42.366;23.818;2023-01-31T09:38:12;93672.88;;;2.54;81.73
40384;BME280;26097;42.366;23.818;2023-01-31T09:44:20;93693.34;;;2.39;79.84
40384;BME280;26097;42.366;23.818;2023-01-31T09:47:30;93683.22;;;2.19;80.15
40384;BME280;26097;42.366;23.818;2023-01-31T09:50:49;93669.28;;;2.05;80.75
40384;BME280;26097;42.366;23.818;2023-01-31T09:53:50;93661.00;;;2.18;82.73
40384;BME280;26097;42.366;23.818;2023-01-31T10:00:17;93654.59;;;2.42;78.69
40384;BME280;26097;42.366;23.818;2023-01-31T10:06:29;93659.16;;;2.87;78.50
40384;BME280;26097;42.366;23.818;2023-01-31T10:09:48;93671.16;;;3.20;75.15
40384;BME280;26097;42.366;23.818;2023-01-31T10:12:55;93666.47;;;3.59;73.12
40384;BME280;26097;42.366;23.818;2023-01-31T10:19:10;93634.19;;;3.98;72.06
40384;BME280;26097;42.366;23.818;2023-01-31T10:25:53;93642.66;;;3.86;69.13
40384;BME280;26097;42.366;23.818;2023-01-31T10:29:21;93642.72;;;3.84;71.15
40384;BME280;26097;42.366;23.818;2023-01-31T10:32:24;93645.13;;;3.88;68.74
40384;BME280;26097;42.366;23.818;2023-01-31T10:35:36;93639.50;;;3.81;69.76
40384;BME280;26097;42.366;23.818;2023-01-31T10:38:55;93644.22;;;3.42;68.97
40384;BME280;26097;42.366;23.818;2023-01-31T10:45:22;93624.19;;;3.78;68.62
40384;BME280;26097;42.366;23.818;2023-01-31T10:48:23;93636.59;;;3.71;66.61
40384;BME280;26097;42.366;23.818;2023-01-31T10:54:58;93621.09;;;4.18;67.32
40384;BME280;26097;42.366;23.818;2023-01-31T10:58:03;93613.69;;;4.11;68.04
40384;BME280;26097;42.366;23.818;2023-01-31T11:01:06;93620.31;;;4.01;68.86
40384;BME280;26097;42.366;23.818;2023-01-31T11:04:24;93611.28;;;4.08;66.01
40384;BME280;26097;42.366;23.818;2023-01-31T11:07:29;93619.72;;;4.26;66.53
40384;BME280;26097;42.366;23.818;2023-01-31T11:10:31;93611.53;;;4.34;64.66
40384;BME280;26097;42.366;23.818;2023-01-31T11:13:32;93610.78;;;4.47;64.23
40384;BME280;26097;42.366;23.818;2023-01-31T11:16:35;93633.63;;;4.67;64.87
40384;BME280;26097;42.366;23.818;2023-01-31T11:19:54;93626.66;;;4.55;64.84
40384;BME280;26097;42.366;23.818;2023-01-31T11:22:57;93627.72;;;4.51;65.70
40384;BME280;26097;42.366;23.818;2023-01-31T11:25:58;93616.25;;;4.11;67.03
40384;BME280;26097;42.366;23.818;2023-01-31T11:28:59;93618.47;;;4.03;66.33
40384;BME280;26097;42.366;23.818;2023-01-31T11:32:03;93624.91;;;3.65;67.45
40384;BME280;26097;42.366;23.818;2023-01-31T11:41:35;93624.38;;;3.75;67.33
40384;BME280;26097;42.366;23.818;2023-01-31T11:45:02;93626.16;;;3.89;66.33
40384;BME280;26097;42.366;23.818;2023-01-31T11:48:08;93621.66;;;3.92;65.89
40384;BME280;26097;42.366;23.818;2023-01-31T11:51:28;93637.81;;;3.96;66.31
40384;BME280;26097;42.366;23.818;2023-01-31T11:54:31;93618.97;;;3.79;68.61
40384;BME280;26097;42.366;23.818;2023-01-31T11:57:38;93623.06;;;3.67;67.46
40384;BME280;26097;42.366;23.818;2023-01-31T12:00:48;93636.53;;;4.03;66.43
40384;BME280;26097;42.366;23.818;2023-01-31T12:03:54;93624.31;;;3.76;67.72
40384;BME280;26097;42.366;23.818;2023-01-31T12:07:22;93630.13;;;3.64;67.15
40384;BME280;26097;42.366;23.818;2023-01-31T12:10:26;93636.72;;;3.53;69.39
40384;BME280;26097;42.366;23.818;2023-01-31T12:13:27;93631.41;;;3.40;70.60
40384;BME280;26097;42.366;23.818;2023-01-31T12:16:29;93630.19;;;3.32;72.21
40384;BME280;26097;42.366;23.818;2023-01-31T12:19:45;93621.66;;;3.15;74.29
40384;BME280;26097;42.366;23.818;2023-01-31T12:26:20;93627.06;;;2.61;78.37
40384;BME280;26097;42.366;23.818;2023-01-31T12:39:40;93638.03;;;3.61;75.98
40384;BME280;26097;42.366;23.818;2023-01-31T12:42:57;93642.00;;;2.88;78.89
40384;BME280;26097;42.366;23.818;2023-01-31T12:46:23;93657.47;;;2.70;80.47
40384;BME280;26097;42.366;23.818;2023-01-31T13:05:53;93653.63;;;2.27;94.57
40384;BME280;26097;42.366;23.818;2023-01-31T13:08:59;93672.66;;;2.41;91.11
40384;BME280;26097;42.366;23.818;2023-01-31T13:12:16;93660.91;;;2.53;89.47
40384;BME280;26097;42.366;23.818;2023-01-31T13:15:49;93660.72;;;2.40;90.77
40384;BME280;26097;42.366;23.818;2023-01-31T13:18:54;93679.56;;;2.23;91.28
40384;BME280;26097;42.366;23.818;2023-01-31T13:21:58;93669.91;;;2.10;91.74
40384;BME280;26097;42.366;23.818;2023-01-31T13:28:35;93671.09;;;1.68;93.21
40384;BME280;26097;42.366;23.818;2023-01-31T13:31:45;93681.19;;;1.53;95.77
40384;BME280;26097;42.366;23.818;2023-01-31T13:34:50;93683.59;;;1.39;96.39
40384;BME280;26097;42.366;23.818;2023-01-31T13:37:55;93679.63;;;1.32;96.32
40384;BME280;26097;42.366;23.818;2023-01-31T13:40:59;93687.81;;;1.40;97.29
40384;BME280;26097;42.366;23.818;2023-01-31T13:44:00;93697.03;;;1.44;97.05
40384;BME280;26097;42.366;23.818;2023-01-31T13:47:05;93689.41;;;1.42;93.84
40384;BME280;26097;42.366;23.818;2023-01-31T13:50:35;93699.75;;;1.41;94.67
40384;BME280;26097;42.366;23.818;2023-01-31T13:57:05;93682.09;;;1.52;94.97
40384;BME280;26097;42.366;23.818;2023-01-31T14:00:09;93685.34;;;1.56;95.94
40384;BME280;26097;42.366;23.818;2023-01-31T14:03:22;93668.97;;;1.59;93.58
40384;BME280;26097;42.366;23.818;2023-01-31T14:06:22;93670.50;;;1.63;92.24
40384;BME280;26097;42.366;23.818;2023-01-31T14:09:31;93672.75;;;1.69;92.87
40384;BME280;26097;42.366;23.818;2023-01-31T14:12:34;93666.66;;;1.71;92.00
40384;BME280;26097;42.366;23.818;2023-01-31T14:15:48;93673.09;;;1.80;92.70
40384;BME280;26097;42.366;23.818;2023-01-31T14:18:49;93695.44;;;1.96;90.12
40384;BME280;26097;42.366;23.818;2023-01-31T14:21:54;93692.66;;;2.00;89.54
40384;BME280;26097;42.366;23.818;2023-01-31T14:28:10;93689.41;;;2.14;90.21
40384;BME280;26097;42.366;23.818;2023-01-31T14:31:12;93686.00;;;2.32;90.53
40384;BME280;26097;42.366;23.818;2023-01-31T14:34:22;93684.19;;;2.16;89.34
40384;BME280;26097;42.366;23.818;2023-01-31T14:47:30;93702.84;;;1.84;93.06
40384;BME280;26097;42.366;23.818;2023-01-31T14:54:25;93715.97;;;1.61;93.41
40384;BME280;26097;42.366;23.818;2023-01-31T14:57:32;93712.31;;;1.47;95.86
40384;BME280;26097;42.366;23.818;2023-01-31T15:00:46;93717.19;;;1.34;94.82
40384;BME280;26097;42.366;23.818;2023-01-31T15:03:51;93727.34;;;1.18;95.52
40384;BME280;26097;42.366;23.818;2023-01-31T15:06:54;93723.03;;;0.99;96.83
40384;BME280;26097;42.366;23.818;2023-01-31T15:09:55;93732.44;;;0.80;98.72
40384;BME280;26097;42.366;23.818;2023-01-31T15:12:57;93735.66;;;0.64;100.00
40384;BME280;26097;42.366;23.818;2023-01-31T15:16:03;93735.13;;;0.56;100.00
40384;BME280;26097;42.366;23.818;2023-01-31T15:19:19;93742.31;;;0.48;100.00
40384;BME280;26097;42.366;23.818;2023-01-31T15:22:20;93749.41;;;0.42;100.00
40384;BME280;26097;42.366;23.818;2023-01-31T15:25:24;93739.28;;;0.39;100.00
40384;BME280;26097;42.366;23.818;2023-01-31T15:28:36;93747.06;;;0.36;100.00
40384;BME280;26097;42.366;23.818;2023-01-31T15:31:41;93748.81;;;0.36;100.00
40384;BME280;26097;42.366;23.818;2023-01-31T15:34:52;93753.03;;;0.37;100.00
40384;BME280;26097;42.366;23.818;2023-01-31T15:38:11;93753.09;;;0.35;100.00
40384;BME280;26097;42.366;23.818;2023-01-31T15:41:37;93757.53;;;0.32;100.00
40384;BME280;26097;42.366;23.818;2023-01-31T15:44:38;93761.03;;;0.29;100.00
40384;BME280;26097;42.366;23.818;2023-01-31T15:47:38;93773.00;;;0.28;100.00
40384;BME280;26097;42.366;23.818;2023-01-31T15:50:56;93771.31;;;0.29;100.00
40384;BME280;26097;42.366;23.818;2023-01-31T15:54:02;93766.34;;;0.24;100.00
40384;BME280;26097;42.366;23.818;2023-01-31T15:57:10;93779.25;;;0.23;100.00
40384;BME280;26097;42.366;23.818;2023-01-31T16:00:26;93780.78;;;0.27;100.00
40384;BME280;26097;42.366;23.818;2023-01-31T16:03:38;93791.16;;;0.24;100.00
40384;BME280;26097;42.366;23.818;2023-01-31T16:06:39;93794.56;;;0.24;100.00
40384;BME280;26097;42.366;23.818;2023-01-31T16:09:39;93803.78;;;0.28;100.00
40384;BME280;26097;42.366;23.818;2023-01-31T16:12:44;93797.84;;;0.28;100.00
40384;BME280;26097;42.366;23.818;2023-01-31T16:15:46;93813.47;;;0.22;100.00
40384;BME280;26097;42.366;23.818;2023-01-31T16:18:51;93807.75;;;0.15;100.00
40384;BME280;26097;42.366;23.818;2023-01-31T16:21:54;93802.75;;;0.12;100.00
40384;BME280;26097;42.366;23.818;2023-01-31T16:24:59;93806.13;;;0.12;100.00
40384;BME280;26097;42.366;23.818;2023-01-31T16:28:04;93805.50;;;0.07;100.00
40384;BME280;26097;42.366;23.818;2023-01-31T16:31:09;93816.34;;;0.14;100.00
40384;BME280;26097;42.366;23.818;2023-01-31T16:34:40;93817.16;;;0.14;100.00
40384;BME280;26097;42.366;23.818;2023-01-31T16:37:42;93829.84;;;0.18;100.00
40384;BME280;26097;42.366;23.818;2023-01-31T16:40:48;93836.63;;;0.19;100.00
40384;BME280;26097;42.366;23.818;2023-01-31T16:43:50;93835.69;;;0.21;100.00
40384;BME280;26097;42.366;23.818;2023-01-31T16:46:52;93831.41;;;0.22;100.00
40384;BME280;26097;42.366;23.818;2023-01-31T16:56:24;93849.47;;;0.19;100.00
40384;BME280;26097;42.366;23.818;2023-01-31T16:59:38;93849.34;;;0.22;100.00
40384;BME280;26097;42.366;23.818;2023-01-31T17:02:40;93852.75;;;0.22;100.00
40384;BME280;26097;42.366;23.818;2023-01-31T17:05:43;93867.19;;;0.25;100.00
40384;BME280;26097;42.366;23.818;2023-01-31T17:08:44;93863.88;;;0.21;100.00
40384;BME280;26097;42.366;23.818;2023-01-31T17:11:45;93868.97;;;0.23;100.00
40384;BME280;26097;42.366;23.818;2023-01-31T17:14:46;93868.97;;;0.23;100.00
40384;BME280;26097;42.366;23.818;2023-01-31T17:17:47;93868.19;;;0.21;100.00
40384;BME280;26097;42.366;23.818;2023-01-31T17:20:48;93884.47;;;0.20;100.00
40384;BME280;26097;42.366;23.818;2023-01-31T17:23:50;93881.97;;;0.18;100.00
40384;BME280;26097;42.366;23.818;2023-01-31T17:26:50;93881.91;;;0.20;100.00
40384;BME280;26097;42.366;23.818;2023-01-31T17:29:51;93883.59;;;0.21;100.00
40384;BME280;26097;42.366;23.818;2023-01-31T17:32:51;93874.16;;;0.21;100.00
40384;BME280;26097;42.366;23.818;2023-01-31T17:35:52;93877.59;;;0.20;100.00
40384;BME280;26097;42.366;23.818;2023-01-31T17:38:52;93886.19;;;0.19;100.00
40384;BME280;26097;42.366;23.818;2023-01-31T17:41:53;93885.34;;;0.19;100.00
40384;BME280;26097;42.366;23.818;2023-01-31T17:44:53;93887.13;;;0.17;100.00
40384;BME280;26097;42.366;23.818;2023-01-31T17:47:54;93887.97;;;0.17;100.00
40384;BME280;26097;42.366;23.818;2023-01-31T17:50:54;93883.81;;;0.14;100.00
40384;BME280;26097;42.366;23.818;2023-01-31T17:53:55;93891.56;;;0.13;100.00
40384;BME280;26097;42.366;23.818;2023-01-31T17:56:55;93895.84;;;0.12;100.00
40384;BME280;26097;42.366;23.818;2023-01-31T17:59:56;93889.94;;;0.10;100.00
40384;BME280;26097;42.366;23.818;2023-01-31T18:02:57;93890.19;;;0.04;100.00
40384;BME280;26097;42.366;23.818;2023-01-31T18:06:04;93905.00;;;-0.04;100.00